Stronach, Michigan
Current Conditions -  °F | °C
As of 11:55 PM on Saturday 22 Nov 2014 (Local Time) from KMBL Reporting Station
Overcast Overcast  
Wind Chill: 38°   Ceiling: 1400
Heat Index: 41°   Visibility: 1mi
Dew Point: 37°   Wind: 5mph
Humidity: 87%   Direction: 100°E
Pressure: 29.82"   Gusts: NA
Location:  44.1909°N, 86.1855°W
Report Text: KMBL 230455Z AUTO 10004KT 1SM OVC014 05/03 A2982 RMK AO1
Loading
Personal Weather Stations






























Interactive Weather Map New forecast layout! Learn more

10-Day Weather Forecast

Advertisements
Track Severe Weather on mobile